Terminal Aerodrome Forecast
Issued by NWS

Home | Current Version | Previous Version | Text Only | Print | Product List | Glossary Off
Versions: 1 2 3 4 5 6 7 8 9 10 11 12 13 14 15 16 17

000
FTUS43 KGRB 021131
TAFAUW
TAF
KAUW 021131Z 0212/0312 VRB02KT 4SM BR SCT003 SCT015 BKN120
      TEMPO 0212/0214 2SM BR BKN003
     FM021400 29004KT P6SM SCT015 BKN100
      TEMPO 0216/0220 5SM -SHRA BR BKN025
     FM022000 15004KT P6SM VCSH SCT020 BKN100
      TEMPO 0220/0224 4SM -SHRA BR BKN020
     FM030000 VRB03KT 5SM -SHRA BR BKN020 PROB30 0300/0304 4SM -TSRA
      BKN015CB
     FM030800 VRB03KT 3SM BR VCSH BKN015
      TEMPO 0308/0312 1SM BR BKN005=

USA.gov is the U.S. government's official web portal to all federal, state and local government web resources and services.